Butte Meadows, California
Current Conditions -  °F | °C
As of 10:54 PM on Thursday 18 Dec 2014 (Local Time) from KRBL Reporting Station
Moderate Rain Moderate Rain  
Wind Chill: 52°   Ceiling: 6000
Heat Index: 52°   Visibility: 5mi
Dew Point: 49°   Wind: 8mph
Humidity: 89%   Direction: 160°SSE
Pressure: 30.13"   Gusts: NA
Location:  40.1192°N, 121.505°W
Report Text: KRBL 190654Z AUTO 16007KT 5SM RA BR FEW031 SCT046 OVC060 11/09 A3013 RMK AO2 RAB0556 SLP201 P0005 T01110094
Loading
Personal Weather Stations






























Interactive Weather Map New forecast layout! Learn more

10-Day Weather Forecast

Advertisements
Track Severe Weather on mobile